Time;durP1;ratioP1;P1;durP2;ratioP2;P2;SDS_P1;SDS_P2;PMS_P1;PMS_P2;Temp;Humidity;BMP_temperature;BMP_pressure;BME280_temperature;BME280_humidity;BME280_pressure;Samples;Min_cycle;Max_cycle;Signal;HPM_P1;HPM_P2
2022/10/04 00:01:06;;;;;;;6.53;2.20;;;13.00;99.90;;;;;;5041588;28;20411;-80
2022/10/04 00:03:39;;;;;;;5.13;2.10;;;13.00;99.90;;;;;;5041786;28;20414;-79
2022/10/04 00:06:06;;;;;;;5.80;2.20;;;13.00;99.90;;;;;;5042982;28;20417;-79
2022/10/04 00:08:47;;;;;;;4.97;1.90;;;13.00;99.90;;;;;;5044346;28;20426;-80
2022/10/04 00:11:25;;;;;;;9.80;2.13;;;13.00;99.90;;;;;;5044377;28;20888;-80
2022/10/04 00:13:59;;;;;;;5.27;1.97;;;13.00;99.90;;;;;;5052035;28;20405;-78
2022/10/04 00:16:31;;;;;;;2.50;1.70;;;13.00;99.90;;;;;;5045364;28;20444;-79
2022/10/04 00:19:16;;;;;;;9.10;1.80;;;13.00;99.90;;;;;;5051154;28;20472;-78
2022/10/04 00:22:11;;;;;;;3.17;2.20;;;13.00;99.90;;;;;;5049932;28;20398;-80
2022/10/04 00:24:37;;;;;;;3.93;1.73;;;13.00;99.90;;;;;;5044811;28;20779;-80
2022/10/04 00:27:23;;;;;;;6.47;2.50;;;13.00;99.90;;;;;;5043393;28;20461;-79
2022/10/04 00:30:01;;;;;;;11.20;2.37;;;13.00;99.90;;;;;;5045853;28;20168;-78
2022/10/04 00:32:39;;;;;;;8.80;1.70;;;13.00;99.90;;;;;;5044504;28;20409;-79
2022/10/04 00:35:24;;;;;;;8.17;2.40;;;13.00;99.90;;;;;;5043806;28;20406;-78
2022/10/04 00:38:07;;;;;;;2.60;1.60;;;13.00;99.90;;;;;;5043287;28;20448;-77
2022/10/04 00:40:41;;;;;;;7.07;2.30;;;12.90;99.90;;;;;;5044201;28;20477;-78
2022/10/04 00:43:14;;;;;;;3.27;1.47;;;13.00;99.90;;;;;;5045367;28;20405;-81
2022/10/04 00:45:52;;;;;;;1.97;1.63;;;13.00;99.90;;;;;;5044603;28;20399;-77
2022/10/04 00:48:41;;;;;;;3.73;1.67;;;13.00;99.90;;;;;;5043071;28;20453;-79
2022/10/04 00:51:06;;;;;;;2.43;1.60;;;12.90;99.90;;;;;;5041008;28;20402;-79
2022/10/04 00:54:04;;;;;;;6.13;1.87;;;12.90;99.90;;;;;;5043032;28;20409;-78
2022/10/04 00:56:39;;;;;;;3.50;1.83;;;12.90;99.90;;;;;;5035247;28;20215;-79
2022/10/04 00:59:23;;;;;;;10.73;1.70;;;12.90;99.90;;;;;;5042716;28;20461;-79
2022/10/04 01:01:55;;;;;;;5.60;2.20;;;12.90;99.90;;;;;;5043668;28;20407;-79
2022/10/04 01:04:34;;;;;;;3.30;1.73;;;12.90;99.90;;;;;;5042954;28;20402;-78
2022/10/04 01:07:02;;;;;;;4.43;1.50;;;12.90;99.90;;;;;;5043457;28;20452;-79
2022/10/04 01:09:32;;;;;;;8.27;2.13;;;12.90;99.90;;;;;;5043397;28;20487;-78
2022/10/04 01:12:08;;;;;;;4.70;2.10;;;12.90;99.90;;;;;;5043790;28;20780;-79
2022/10/04 01:15:10;;;;;;;3.97;1.80;;;12.90;99.90;;;;;;5043413;28;20473;-80
2022/10/04 01:17:36;;;;;;;5.07;1.93;;;12.90;99.90;;;;;;5043110;28;20457;-79
2022/10/04 01:20:02;;;;;;;3.67;1.77;;;12.90;99.90;;;;;;5043318;28;20418;-79
2022/10/04 01:22:42;;;;;;;3.60;2.03;;;12.80;99.90;;;;;;5044260;28;20224;-79
2022/10/04 01:25:08;;;;;;;4.27;1.53;;;12.80;99.90;;;;;;5042912;28;20781;-80
2022/10/04 01:27:42;;;;;;;7.33;1.80;;;12.70;99.90;;;;;;5043059;28;20418;-78
2022/10/04 01:30:16;;;;;;;3.87;1.73;;;12.70;99.90;;;;;;5041946;28;20160;-79
2022/10/04 01:32:42;;;;;;;8.23;1.70;;;12.70;99.90;;;;;;5041772;28;20442;-79
2022/10/04 01:35:10;;;;;;;7.10;1.87;;;12.70;99.90;;;;;;5041904;28;20884;-79
2022/10/04 01:37:38;;;;;;;5.57;1.87;;;12.70;99.90;;;;;;5041350;28;20442;-79
2022/10/04 01:40:05;;;;;;;6.87;2.30;;;12.70;99.90;;;;;;5042303;28;20406;-79
2022/10/04 01:42:44;;;;;;;8.67;1.80;;;12.70;99.90;;;;;;5041586;28;20390;-79
2022/10/04 01:45:14;;;;;;;3.83;2.40;;;12.70;99.90;;;;;;5041601;28;20403;-79
2022/10/04 01:47:51;;;;;;;8.87;2.77;;;12.70;99.90;;;;;;5041693;28;20488;-79
2022/10/04 01:50:30;;;;;;;4.00;1.87;;;12.70;99.90;;;;;;5041222;28;20913;-79
2022/10/04 01:53:19;;;;;;;4.93;1.53;;;12.70;99.90;;;;;;5039295;28;20405;-78
2022/10/04 01:55:50;;;;;;;6.83;2.03;;;12.60;99.90;;;;;;5040149;28;20410;-79
2022/10/04 01:58:29;;;;;;;4.27;2.13;;;12.60;99.90;;;;;;5040337;28;20465;-78
2022/10/04 02:01:03;;;;;;;4.03;1.67;;;12.60;99.90;;;;;;5040964;28;20482;-79
2022/10/04 02:03:35;;;;;;;5.07;2.03;;;12.70;99.90;;;;;;5039377;28;20532;-79
2022/10/04 02:06:06;;;;;;;6.30;1.73;;;12.70;99.90;;;;;;5038379;28;20409;-79
2022/10/04 02:08:37;;;;;;;5.80;1.50;;;12.60;99.90;;;;;;5037993;28;20415;-79
2022/10/04 02:11:04;;;;;;;2.03;1.20;;;12.60;99.90;;;;;;5038227;28;20403;-78
2022/10/04 02:13:38;;;;;;;6.13;2.20;;;12.60;99.90;;;;;;5037684;28;20827;-80
2022/10/04 02:16:10;;;;;;;6.00;2.00;;;12.60;99.90;;;;;;5036022;28;20477;-79
2022/10/04 02:18:38;;;;;;;3.70;1.63;;;12.60;99.90;;;;;;5037152;28;20464;-79
2022/10/04 02:21:05;;;;;;;5.20;1.87;;;12.50;99.90;;;;;;5036564;28;20415;-78
2022/10/04 02:23:32;;;;;;;7.17;1.83;;;12.50;99.90;;;;;;5035988;28;20394;-79
2022/10/04 02:25:58;;;;;;;6.43;1.80;;;12.50;99.90;;;;;;5036094;28;20414;-77
2022/10/04 02:28:24;;;;;;;5.83;2.10;;;12.50;99.90;;;;;;5039583;28;20485;-78
2022/10/04 02:33:42;;;;;;;6.63;1.67;;;12.40;99.90;;;;;;5050426;28;20470;-78
2022/10/04 02:36:09;;;;;;;4.40;1.80;;;12.30;99.90;;;;;;5045089;28;20410;-79
2022/10/04 02:38:41;;;;;;;12.73;2.10;;;12.30;99.90;;;;;;5041617;28;20477;-79
2022/10/04 02:41:31;;;;;;;15.30;2.23;;;12.20;99.90;;;;;;5042373;28;20897;-79
2022/10/04 02:44:12;;;;;;;4.50;1.80;;;12.20;99.90;;;;;;5042549;28;20406;-79
2022/10/04 02:46:57;;;;;;;5.73;1.90;;;12.20;99.90;;;;;;5041723;28;20434;-79
2022/10/04 02:49:33;;;;;;;2.60;1.80;;;12.20;99.90;;;;;;5041715;28;20478;-79
2022/10/04 02:52:05;;;;;;;2.00;1.57;;;12.20;99.90;;;;;;5042039;28;20405;-79
2022/10/04 02:55:01;;;;;;;1.90;1.40;;;12.20;99.90;;;;;;5000662;28;20522;-80
2022/10/04 02:57:29;;;;;;;10.30;2.27;;;12.20;99.90;;;;;;5002377;28;20446;-79
2022/10/04 03:00:17;;;;;;;6.87;1.83;;;12.20;99.90;;;;;;5002632;28;21247;-80
2022/10/04 03:03:22;;;;;;;3.43;1.60;;;12.10;99.90;;;;;;5002413;28;20404;-80
2022/10/04 03:06:05;;;;;;;4.20;1.77;;;12.00;99.90;;;;;;4997933;28;20430;-79
2022/10/04 03:08:54;;;;;;;5.30;1.40;;;12.00;99.90;;;;;;5002789;28;20404;-80
2022/10/04 03:11:23;;;;;;;7.23;2.63;;;11.90;99.90;;;;;;5004192;28;20941;-78
2022/10/04 03:13:53;;;;;;;3.33;1.70;;;11.90;99.90;;;;;;5006386;28;20491;-80
2022/10/04 03:16:19;;;;;;;2.10;1.47;;;11.80;99.90;;;;;;5002688;28;20455;-80
2022/10/04 03:18:47;;;;;;;7.23;2.23;;;11.80;99.90;;;;;;5002131;28;20476;-79
2022/10/04 03:21:16;;;;;;;5.30;2.00;;;11.70;99.90;;;;;;5001621;28;20507;-79
2022/10/04 03:23:43;;;;;;;4.23;1.93;;;11.70;99.90;;;;;;5002255;28;20405;-80
2022/10/04 03:26:50;;;;;;;9.93;2.53;;;11.60;99.90;;;;;;5002744;28;20486;-79
2022/10/04 03:29:18;;;;;;;7.00;2.03;;;11.50;99.90;;;;;;4942214;29;20509;-79
2022/10/04 03:31:46;;;;;;;6.20;2.07;;;11.50;99.90;;;;;;4942086;29;20423;-79
2022/10/04 03:34:18;;;;;;;9.30;1.90;;;11.50;99.90;;;;;;4973088;28;20769;-80
2022/10/04 03:36:46;;;;;;;9.73;2.83;;;11.50;99.90;;;;;;5001557;28;20423;-79
2022/10/04 03:39:46;;;;;;;7.90;2.10;;;11.40;99.90;;;;;;5017399;28;20542;-79
2022/10/04 03:42:27;;;;;;;7.50;2.80;;;11.40;99.90;;;;;;5005092;28;20981;-79
2022/10/04 03:44:58;;;;;;;6.10;2.13;;;11.30;99.90;;;;;;5005335;28;20734;-78
2022/10/04 03:47:30;;;;;;;10.87;2.20;;;11.30;99.90;;;;;;5005482;28;20506;-79
2022/10/04 03:50:01;;;;;;;4.10;1.97;;;11.20;99.90;;;;;;5004572;28;20420;-79
2022/10/04 03:52:36;;;;;;;6.13;2.40;;;11.20;99.90;;;;;;5004154;28;20408;-78
2022/10/04 03:55:05;;;;;;;3.10;2.33;;;11.20;99.90;;;;;;5003909;28;20418;-78
2022/10/04 03:57:32;;;;;;;6.90;2.27;;;11.20;99.90;;;;;;5005333;28;20456;-79
2022/10/04 03:59:58;;;;;;;6.30;2.53;;;11.20;99.90;;;;;;5005632;28;20407;-78
2022/10/04 04:02:42;;;;;;;5.03;3.00;;;11.20;99.90;;;;;;5005069;28;20452;-79
2022/10/04 04:05:19;;;;;;;10.60;2.80;;;11.20;99.90;;;;;;5005433;28;20480;-77
2022/10/04 04:07:55;;;;;;;6.40;2.10;;;11.20;99.90;;;;;;5005188;28;20458;-80
2022/10/04 04:10:31;;;;;;;2.43;2.10;;;11.20;99.90;;;;;;5004389;28;20439;-78
2022/10/04 04:13:32;;;;;;;6.60;2.13;;;11.30;99.90;;;;;;5006145;28;20415;-77
2022/10/04 04:16:00;;;;;;;7.60;2.10;;;11.30;99.90;;;;;;4999362;28;20424;-77
2022/10/04 04:18:30;;;;;;;7.07;2.40;;;11.30;99.90;;;;;;5013201;28;20462;-77
2022/10/04 04:21:00;;;;;;;3.10;1.60;;;11.20;99.90;;;;;;5012709;28;20400;-77
2022/10/04 04:23:31;;;;;;;6.37;2.10;;;11.20;99.90;;;;;;5013325;28;20408;-78
2022/10/04 04:26:13;;;;;;;6.30;2.47;;;11.10;99.90;;;;;;5008813;28;20403;-79
2022/10/04 04:28:43;;;;;;;4.37;2.63;;;11.10;99.90;;;;;;5006135;28;20407;-78
2022/10/04 04:31:20;;;;;;;5.30;2.30;;;11.10;99.90;;;;;;5006262;28;20419;-79
2022/10/04 04:33:59;;;;;;;3.80;1.90;;;11.10;99.90;;;;;;5003244;28;20415;-78
2022/10/04 04:36:27;;;;;;;5.50;2.37;;;11.00;99.90;;;;;;5004275;28;20427;-78
2022/10/04 04:41:38;;;;;;;8.07;2.63;;;11.00;99.90;;;;;;5010955;28;20484;-77
2022/10/04 04:44:16;;;;;;;5.70;1.50;;;11.00;99.90;;;;;;5009935;28;20814;-79
2022/10/04 04:46:44;;;;;;;5.83;1.80;;;11.00;99.90;;;;;;5009509;28;20435;-78
2022/10/04 04:49:10;;;;;;;5.90;2.10;;;11.00;99.90;;;;;;5009376;28;20419;-78
2022/10/04 04:51:36;;;;;;;9.17;3.00;;;11.00;99.90;;;;;;5006668;28;20448;-78
2022/10/04 04:54:05;;;;;;;7.70;2.67;;;11.00;99.90;;;;;;5004978;28;20405;-79
2022/10/04 04:56:31;;;;;;;5.07;1.97;;;10.90;99.90;;;;;;5004197;28;20576;-79
2022/10/04 04:59:00;;;;;;;7.20;2.40;;;10.90;99.90;;;;;;5005569;28;20458;-78
2022/10/04 05:01:34;;;;;;;13.50;2.67;;;10.90;99.90;;;;;;5005059;28;20436;-79
2022/10/04 05:04:08;;;;;;;4.23;2.13;;;10.90;99.90;;;;;;5007161;28;20436;-79
2022/10/04 05:06:36;;;;;;;8.90;2.47;;;10.90;99.90;;;;;;5030915;23;20439;-72
2022/10/04 05:09:03;;;;;;;4.60;2.13;;;10.90;99.90;;;;;;5042032;28;20422;-72
2022/10/04 05:11:31;;;;;;;6.10;2.37;;;10.90;99.90;;;;;;5054261;28;20429;-73
2022/10/04 05:14:04;;;;;;;9.63;3.20;;;11.00;99.90;;;;;;5053843;28;20400;-73
2022/10/04 05:16:39;;;;;;;7.23;2.23;;;11.00;99.90;;;;;;5055898;28;20397;-74
2022/10/04 05:19:11;;;;;;;9.97;2.40;;;11.00;99.90;;;;;;5052563;28;20462;-73
2022/10/04 05:21:37;;;;;;;11.40;3.10;;;11.00;99.90;;;;;;5053740;28;20402;-73
2022/10/04 05:24:22;;;;;;;6.20;2.30;;;11.00;99.90;;;;;;5053730;28;20405;-73
2022/10/04 05:27:04;;;;;;;3.00;2.17;;;11.00;99.90;;;;;;5053373;28;20440;-73
2022/10/04 05:29:37;;;;;;;6.70;1.90;;;11.00;99.90;;;;;;5053478;28;20748;-73
2022/10/04 05:32:12;;;;;;;10.20;2.90;;;11.10;99.90;;;;;;5053517;28;20475;-73
2022/10/04 05:34:40;;;;;;;5.13;2.23;;;11.10;99.90;;;;;;5053380;28;20973;-73
2022/10/04 05:37:42;;;;;;;6.43;2.40;;;11.10;99.90;;;;;;5052947;28;20433;-74
2022/10/04 05:40:13;;;;;;;8.50;2.63;;;11.20;99.90;;;;;;5053683;28;20411;-74
2022/10/04 05:42:46;;;;;;;6.37;2.40;;;11.30;99.90;;;;;;5053595;28;20400;-74
2022/10/04 05:45:16;;;;;;;8.10;2.00;;;11.40;99.90;;;;;;5052426;28;20783;-73
2022/10/04 05:47:44;;;;;;;8.00;2.23;;;11.50;99.90;;;;;;5052070;28;21026;-74
2022/10/04 05:50:16;;;;;;;3.40;2.27;;;11.60;99.90;;;;;;5053455;28;20420;-74
2022/10/04 05:52:42;;;;;;;6.80;2.43;;;11.70;99.90;;;;;;5053563;28;20408;-74
2022/10/04 05:55:27;;;;;;;2.90;1.93;;;11.70;99.90;;;;;;5053323;28;20409;-74
2022/10/04 05:58:31;;;;;;;6.00;2.93;;;11.80;99.90;;;;;;5053579;28;20532;-74
2022/10/04 06:01:10;;;;;;;3.97;2.00;;;11.90;99.90;;;;;;5053074;28;20405;-73
2022/10/04 06:04:15;;;;;;;5.03;1.80;;;12.00;99.90;;;;;;5052466;28;20408;-73
2022/10/04 06:07:13;;;;;;;13.43;2.60;;;12.10;99.90;;;;;;5052534;28;20452;-73
2022/10/04 06:10:14;;;;;;;6.10;1.83;;;12.20;99.90;;;;;;5052769;28;20410;-73
2022/10/04 06:13:17;;;;;;;5.53;1.80;;;12.30;99.90;;;;;;5029258;28;20413;-73
2022/10/04 06:16:07;;;;;;;5.87;2.07;;;12.80;99.90;;;;;;5052447;28;20408;-73
2022/10/04 06:18:48;;;;;;;4.23;3.60;;;13.60;99.90;;;;;;5043624;28;20490;-72
2022/10/04 06:21:26;;;;;;;8.97;4.60;;;14.20;99.90;;;;;;5025474;28;20402;-73
2022/10/04 06:24:12;;;;;;;2.80;1.67;;;14.80;99.90;;;;;;5032448;28;20419;-71
2022/10/04 06:26:43;;;;;;;3.60;1.50;;;15.40;99.90;;;;;;5032213;28;20409;-72
2022/10/04 06:29:20;;;;;;;4.63;1.73;;;15.60;99.90;;;;;;5030971;28;20448;-71
2022/10/04 06:32:07;;;;;;;3.93;1.80;;;15.20;99.90;;;;;;5032305;28;20758;-71
2022/10/04 06:34:45;;;;;;;1.43;1.20;;;15.60;99.90;;;;;;5032129;28;20412;-72
2022/10/04 06:37:19;;;;;;;4.33;1.43;;;15.20;99.90;;;;;;5012336;28;20798;-72
2022/10/04 06:40:20;;;;;;;3.33;1.47;;;15.40;99.90;;;;;;5012210;28;20407;-72
2022/10/04 06:43:16;;;;;;;4.53;2.17;;;15.20;99.90;;;;;;4992970;28;20514;-74
2022/10/04 06:46:06;;;;;;;3.20;1.50;;;15.10;99.90;;;;;;5020373;28;20481;-71
2022/10/04 06:48:45;;;;;;;8.90;2.50;;;14.40;99.90;;;;;;5039680;28;20433;-71
2022/10/04 06:51:21;;;;;;;6.73;1.97;;;13.80;99.90;;;;;;5032500;28;20785;-72
2022/10/04 06:54:17;;;;;;;6.20;1.80;;;13.40;99.90;;;;;;5031926;28;20405;-71
2022/10/04 06:56:43;;;;;;;2.90;1.63;;;14.00;99.90;;;;;;5031829;28;20470;-72
2022/10/04 06:59:31;;;;;;;6.37;2.20;;;13.80;99.90;;;;;;5031967;28;20514;-71
2022/10/04 07:02:03;;;;;;;2.90;1.43;;;13.90;99.90;;;;;;5031871;28;20495;-71
2022/10/04 07:04:48;;;;;;;4.30;2.10;;;13.60;99.90;;;;;;5031604;28;20929;-71
2022/10/04 07:07:23;;;;;;;2.50;1.30;;;13.80;99.90;;;;;;5031706;28;21045;-71
2022/10/04 07:10:01;;;;;;;10.97;1.97;;;13.70;99.90;;;;;;5031887;28;20402;-72
2022/10/04 07:12:27;;;;;;;4.17;1.57;;;13.80;99.90;;;;;;5031353;28;20817;-72
2022/10/04 07:14:58;;;;;;;3.40;1.67;;;13.90;99.90;;;;;;5031413;28;20405;-72
2022/10/04 07:17:35;;;;;;;8.30;1.90;;;13.60;99.90;;;;;;5031559;28;20423;-72
2022/10/04 07:20:01;;;;;;;4.93;1.53;;;13.40;99.90;;;;;;5031523;28;20513;-72
2022/10/04 07:22:51;;;;;;;4.13;2.03;;;13.60;99.90;;;;;;5031634;28;20406;-72
2022/10/04 07:25:21;;;;;;;4.57;1.97;;;13.60;99.90;;;;;;5031504;28;20457;-72
2022/10/04 07:31:00;;;;;;;13.50;2.43;;;13.80;99.90;;;;;;5011925;28;20493;-72
2022/10/04 07:33:27;;;;;;;3.17;1.70;;;13.80;99.90;;;;;;5011608;28;20415;-71
2022/10/04 07:36:20;;;;;;;3.40;1.80;;;14.00;99.90;;;;;;5011803;28;20944;-72
2022/10/04 07:38:54;;;;;;;3.60;2.73;;;13.80;99.90;;;;;;5011708;28;20470;-72
2022/10/04 07:41:48;;;;;;;5.50;2.30;;;13.80;99.90;;;;;;5011853;28;20408;-72
2022/10/04 07:44:35;;;;;;;3.67;1.53;;;13.60;99.90;;;;;;5011707;28;20474;-71
2022/10/04 07:47:20;;;;;;;3.40;2.60;;;13.40;99.90;;;;;;5044802;28;20910;-71
2022/10/04 07:49:49;;;;;;;6.03;2.23;;;13.30;99.90;;;;;;5051351;28;20951;-72
2022/10/04 07:52:52;;;;;;;4.27;2.60;;;13.30;99.90;;;;;;5051219;28;20494;-72
2022/10/04 07:55:35;;;;;;;3.87;2.00;;;13.50;99.90;;;;;;5031250;28;20409;-73
2022/10/04 07:58:13;;;;;;;3.10;2.33;;;13.60;99.90;;;;;;5031071;28;20477;-72
2022/10/04 08:00:48;;;;;;;6.17;2.00;;;13.80;99.90;;;;;;5031237;28;20403;-72
2022/10/04 08:03:46;;;;;;;4.13;2.13;;;13.80;99.90;;;;;;5031736;28;20391;-72
2022/10/04 08:06:32;;;;;;;5.00;2.57;;;13.50;99.90;;;;;;5031046;28;20398;-72
2022/10/04 08:09:22;;;;;;;6.27;2.40;;;13.50;99.90;;;;;;5031130;28;20423;-72
2022/10/04 08:12:12;;;;;;;8.40;2.77;;;13.40;99.90;;;;;;5031164;28;20407;-72
2022/10/04 08:15:22;;;;;;;2.70;2.50;;;13.40;99.90;;;;;;5031100;28;20398;-72
2022/10/04 08:18:21;;;;;;;8.60;2.77;;;13.40;99.90;;;;;;5030964;28;20457;-72
2022/10/04 08:21:00;;;;;;;3.30;2.30;;;13.40;99.90;;;;;;5017345;28;20411;-72
2022/10/04 08:23:46;;;;;;;2.80;2.17;;;13.60;99.90;;;;;;5011332;28;20457;-71
2022/10/04 08:26:30;;;;;;;5.27;2.77;;;13.70;99.90;;;;;;5014877;28;20419;-72
2022/10/04 08:32:10;;;;;;;5.30;2.63;;;14.10;99.90;;;;;;5034666;28;20425;-71
2022/10/04 08:34:42;;;;;;;3.70;2.47;;;14.30;99.90;;;;;;5034470;28;20411;-72
2022/10/04 08:37:23;;;;;;;4.37;2.50;;;14.50;99.90;;;;;;5034280;28;20427;-71
2022/10/04 08:39:55;;;;;;;5.10;2.60;;;14.30;99.90;;;;;;5034472;28;20434;-72
2022/10/04 08:42:52;;;;;;;5.37;3.30;;;14.50;99.90;;;;;;5034405;28;20391;-71
2022/10/04 08:45:31;;;;;;;4.00;3.23;;;14.50;99.90;;;;;;5032826;28;20491;-71
2022/10/04 08:48:18;;;;;;;6.77;2.60;;;14.60;99.90;;;;;;5047352;28;20426;-71
2022/10/04 08:51:05;;;;;;;3.67;3.33;;;14.80;99.90;;;;;;5054231;28;20440;-71
2022/10/04 08:53:51;;;;;;;4.47;2.60;;;14.60;99.90;;;;;;5048936;28;20409;-71
2022/10/04 08:56:25;;;;;;;7.13;2.77;;;14.90;99.90;;;;;;5034119;28;20410;-71
2022/10/04 08:59:28;;;;;;;3.87;2.70;;;15.00;99.90;;;;;;5034091;28;20546;-71
2022/10/04 09:02:17;;;;;;;4.17;2.30;;;15.80;99.90;;;;;;5034175;28;20460;-72
2022/10/04 09:05:19;;;;;;;3.67;2.37;;;16.40;99.90;;;;;;5041360;28;20815;-72
2022/10/04 09:07:56;;;;;;;3.10;2.40;;;16.50;99.90;;;;;;5045886;28;20453;-72
2022/10/04 09:10:28;;;;;;;2.17;2.00;;;16.20;99.90;;;;;;5053970;28;20460;-72
2022/10/04 09:12:58;;;;;;;3.93;2.53;;;15.90;99.90;;;;;;5053999;28;20397;-72
2022/10/04 09:15:52;;;;;;;3.13;2.50;;;16.10;99.90;;;;;;5053798;28;20404;-72
2022/10/04 09:18:48;;;;;;;4.07;2.23;;;16.30;99.90;;;;;;5053828;28;20455;-72
2022/10/04 09:21:53;;;;;;;3.20;2.10;;;16.20;99.90;;;;;;5052516;28;20924;-73
2022/10/04 09:24:37;;;;;;;2.80;2.00;;;16.50;99.90;;;;;;5053600;28;20411;-73
2022/10/04 09:27:39;;;;;;;5.57;2.33;;;16.60;99.90;;;;;;5042761;28;20431;-72
2022/10/04 09:30:20;;;;;;;4.40;1.87;;;16.90;99.90;;;;;;5033782;28;20507;-73
2022/10/04 09:33:06;;;;;;;2.50;1.87;;;16.80;99.90;;;;;;5033704;28;20411;-72
2022/10/04 09:35:59;;;;;;;3.97;1.90;;;16.60;99.90;;;;;;5033523;28;20474;-72
2022/10/04 09:38:39;;;;;;;4.60;2.20;;;17.10;99.90;;;;;;5033198;28;20518;-72
2022/10/04 09:41:26;;;;;;;3.50;1.53;;;16.90;99.90;;;;;;5033786;28;20417;-72
2022/10/04 09:44:11;;;;;;;5.10;2.30;;;17.00;99.90;;;;;;5033291;28;20431;-72
2022/10/04 09:47:02;;;;;;;2.50;1.70;;;16.60;99.90;;;;;;5035442;28;20778;-72
2022/10/04 09:50:12;;;;;;;1.50;1.40;;;16.00;99.90;;;;;;5053002;28;20417;-72
2022/10/04 09:52:47;;;;;;;4.10;1.43;;;16.10;99.90;;;;;;5053451;28;20416;-72
2022/10/04 09:55:34;;;;;;;4.20;2.20;;;16.20;99.90;;;;;;5033534;28;20927;-72
2022/10/04 09:58:28;;;;;;;1.63;1.53;;;15.60;99.90;;;;;;5032901;28;20747;-72
2022/10/04 10:01:15;;;;;;;2.70;2.03;;;15.70;99.90;;;;;;5032943;28;20808;-72
2022/10/04 10:04:18;;;;;;;1.43;1.33;;;16.20;99.90;;;;;;5025176;28;20425;-72
2022/10/04 10:07:08;;;;;;;1.43;1.30;;;16.60;99.90;;;;;;5012954;28;20495;-72
2022/10/04 10:16:21;;;;;;;1.50;1.27;;;16.90;99.90;;;;;;5011607;28;20402;-73
2022/10/04 10:19:10;;;;;;;2.03;1.10;;;16.90;99.90;;;;;;5000643;28;20506;-72
2022/10/04 10:21:47;;;;;;;2.97;1.43;;;17.30;99.90;;;;;;5012921;28;20415;-72
2022/10/04 10:24:35;;;;;;;1.57;0.90;;;17.20;99.90;;;;;;5012519;28;20410;-72
2022/10/04 10:27:30;;;;;;;1.70;1.47;;;17.10;99.90;;;;;;5032908;28;20489;-70
2022/10/04 10:30:20;;;;;;;1.40;1.17;;;17.40;99.90;;;;;;5052389;28;20498;-72
2022/10/04 10:33:31;;;;;;;5.63;1.60;;;17.30;99.90;;;;;;5052398;28;20403;-73
2022/10/04 10:36:11;;;;;;;3.70;1.37;;;17.10;99.90;;;;;;5031670;28;20414;-70
2022/10/04 10:38:42;;;;;;;3.77;2.03;;;17.40;99.90;;;;;;5052079;28;20463;-72
2022/10/04 10:41:34;;;;;;;1.93;1.30;;;17.50;99.90;;;;;;5046718;28;20455;-72
2022/10/04 10:44:21;;;;;;;4.13;2.03;;;17.70;99.90;;;;;;5050586;28;20410;-71
2022/10/04 10:47:18;;;;;;;4.97;1.60;;;17.80;99.90;;;;;;5051922;28;20493;-70
2022/10/04 10:50:20;;;;;;;2.80;1.77;;;17.90;99.90;;;;;;5051757;28;20404;-72
2022/10/04 10:53:06;;;;;;;2.23;1.73;;;17.80;99.90;;;;;;5032189;28;20417;-72
2022/10/04 10:55:32;;;;;;;3.97;1.57;;;17.30;99.90;;;;;;4990976;28;20500;-72
2022/10/04 10:58:22;;;;;;;5.17;2.00;;;17.10;99.90;;;;;;5010543;28;20541;-72
2022/10/04 11:01:09;;;;;;;3.93;1.93;;;17.40;99.90;;;;;;5012083;28;20166;-72
2022/10/04 11:04:19;;;;;;;5.10;3.50;;;17.60;99.90;;;;;;5011986;28;20959;-71
2022/10/04 11:06:48;;;;;;;3.83;1.50;;;18.10;99.90;;;;;;5003201;28;20832;-72
2022/10/04 11:09:28;;;;;;;4.93;1.77;;;18.00;99.90;;;;;;5080914;23;20490;-79
2022/10/04 11:12:09;;;;;;;2.97;1.40;;;17.50;99.90;;;;;;5058098;28;20435;-79
2022/10/04 11:15:02;;;;;;;2.90;1.67;;;17.60;99.90;;;;;;5054274;28;20770;-76
2022/10/04 11:18:00;;;;;;;3.67;2.40;;;17.20;99.90;;;;;;5056548;28;20412;-80
2022/10/04 11:20:48;;;;;;;3.83;1.70;;;17.50;99.90;;;;;;5075895;28;20472;-78
2022/10/04 11:23:50;;;;;;;2.77;1.83;;;17.70;99.90;;;;;;5074328;28;20439;-76
2022/10/04 11:26:46;;;;;;;2.47;1.50;;;17.80;99.90;;;;;;5057571;28;20431;-78
2022/10/04 11:29:30;;;;;;;2.43;1.53;;;17.50;99.90;;;;;;5033230;28;20437;-75
2022/10/04 11:32:04;;;;;;;4.47;2.30;;;17.10;99.90;;;;;;5032953;28;20948;-78
2022/10/04 11:34:45;;;;;;;3.70;2.10;;;17.30;99.90;;;;;;5033807;28;20486;-77
2022/10/04 11:37:20;;;;;;;3.50;1.83;;;17.40;99.90;;;;;;5034756;28;20425;-79
2022/10/04 11:40:06;;;;;;;4.30;2.37;;;17.50;99.90;;;;;;5030103;28;20494;-77
2022/10/04 11:42:53;;;;;;;2.60;1.93;;;17.20;99.90;;;;;;5034617;28;20414;-78
2022/10/04 11:45:54;;;;;;;3.80;1.80;;;17.00;99.90;;;;;;5034707;28;20839;-78
2022/10/04 11:48:42;;;;;;;5.23;2.00;;;17.30;99.90;;;;;;5051419;28;20468;-77
2022/10/04 11:51:52;;;;;;;2.53;1.63;;;17.40;99.90;;;;;;5055703;28;20991;-78
2022/10/04 11:54:49;;;;;;;3.73;1.70;;;17.00;99.90;;;;;;5045862;28;20523;-79
2022/10/04 11:57:54;;;;;;;2.57;1.63;;;17.10;99.90;;;;;;5039435;28;20824;-79
2022/10/04 12:00:22;;;;;;;8.63;1.80;;;16.90;99.90;;;;;;5020278;28;20448;-79
2022/10/04 12:03:08;;;;;;;3.07;1.43;;;16.90;99.90;;;;;;5036342;28;20434;-78
2022/10/04 12:05:51;;;;;;;8.00;1.80;;;16.90;99.90;;;;;;5036451;28;20406;-78
2022/10/04 12:08:37;;;;;;;6.60;1.50;;;16.70;99.90;;;;;;5037812;28;20442;-78
2022/10/04 12:11:17;;;;;;;3.23;1.73;;;16.80;99.90;;;;;;5037383;28;20394;-78
2022/10/04 12:14:08;;;;;;;2.93;2.00;;;17.00;99.90;;;;;;5036089;28;20474;-78
2022/10/04 12:17:17;;;;;;;4.77;1.73;;;17.20;99.90;;;;;;5037131;28;20417;-79
2022/10/04 12:19:51;;;;;;;3.53;1.90;;;17.50;99.90;;;;;;5038874;28;20823;-78
2022/10/04 12:22:47;;;;;;;3.47;1.73;;;17.80;99.90;;;;;;5018128;28;20439;-78
2022/10/04 12:26:06;;;;;;;5.27;1.60;;;17.60;99.90;;;;;;5018022;28;20409;-78
2022/10/04 12:29:02;;;;;;;2.77;1.63;;;17.90;99.90;;;;;;4996223;28;20437;-78
2022/10/04 12:31:32;;;;;;;3.23;1.83;;;17.60;99.90;;;;;;4996742;28;20417;-77
2022/10/04 12:34:18;;;;;;;2.60;1.47;;;18.00;99.90;;;;;;5014285;28;20411;-79
2022/10/04 12:37:14;;;;;;;5.00;1.40;;;17.90;99.90;;;;;;5018681;28;20416;-78
2022/10/04 12:40:04;;;;;;;3.07;1.30;;;18.10;99.90;;;;;;5021942;28;20538;-78
2022/10/04 12:42:47;;;;;;;6.80;1.57;;;18.00;99.90;;;;;;5022302;28;20826;-78
2022/10/04 12:45:46;;;;;;;7.27;1.30;;;18.20;99.90;;;;;;5018321;28;20418;-78
2022/10/04 12:48:21;;;;;;;5.17;2.10;;;18.40;99.90;;;;;;5049379;28;20483;-78
2022/10/04 12:51:09;;;;;;;3.40;1.60;;;17.90;99.90;;;;;;5058882;28;20951;-79
2022/10/04 12:54:00;;;;;;;3.43;2.17;;;17.60;99.90;;;;;;5047782;28;20423;-78
2022/10/04 12:56:57;;;;;;;2.30;1.30;;;17.40;99.90;;;;;;5041818;28;20410;-68
2022/10/04 12:59:42;;;;;;;5.50;1.83;;;17.60;99.90;;;;;;5037161;28;20452;-72
2022/10/04 13:02:27;;;;;;;2.00;1.63;;;17.80;99.90;;;;;;5039695;28;20399;-71
2022/10/04 13:05:11;;;;;;;5.87;2.60;;;17.80;99.90;;;;;;5035699;28;20467;-71
2022/10/04 13:08:02;;;;;;;3.43;1.57;;;17.90;99.90;;;;;;5039081;28;20447;-71
2022/10/04 13:10:46;;;;;;;4.60;1.60;;;17.60;99.90;;;;;;5042825;28;20416;-71
2022/10/04 13:13:50;;;;;;;3.83;1.37;;;17.80;99.90;;;;;;5037073;28;20429;-71
2022/10/04 13:16:22;;;;;;;3.10;1.20;;;18.00;99.90;;;;;;5035129;28;20468;-71
2022/10/04 13:19:09;;;;;;;3.00;1.27;;;18.30;99.90;;;;;;5034477;28;20459;-71
2022/10/04 13:21:40;;;;;;;4.53;1.37;;;18.20;99.90;;;;;;5034334;28;20767;-71
2022/10/04 13:24:53;;;;;;;6.23;1.73;;;18.20;99.90;;;;;;5036224;28;20403;-72
2022/10/04 13:27:29;;;;;;;3.37;1.20;;;17.70;99.90;;;;;;5026096;28;20426;-72
2022/10/04 13:30:06;;;;;;;3.13;1.37;;;17.40;99.90;;;;;;5035991;28;20388;-72
2022/10/04 13:33:09;;;;;;;2.77;1.10;;;17.80;99.90;;;;;;5035229;28;20916;-73
2022/10/04 13:35:54;;;;;;;5.27;1.53;;;18.00;99.90;;;;;;5036511;28;20994;-73
2022/10/04 13:38:23;;;;;;;3.40;2.00;;;18.10;99.90;;;;;;5036299;28;20451;-71
2022/10/04 13:41:25;;;;;;;3.73;1.50;;;18.20;99.90;;;;;;5035138;28;20400;-70
2022/10/04 13:44:09;;;;;;;3.20;1.07;;;18.10;99.90;;;;;;5033751;28;20460;-70
2022/10/04 13:46:59;;;;;;;2.10;1.13;;;18.00;99.90;;;;;;5034097;28;20455;-72
2022/10/04 13:49:44;;;;;;;5.13;1.40;;;18.10;99.90;;;;;;5033296;28;20425;-71
2022/10/04 13:58:30;;;;;;;4.07;2.00;;;18.00;99.90;;;;;;5045458;28;20456;-72
2022/10/04 14:01:20;;;;;;;1.90;1.30;;;17.70;99.90;;;;;;5051829;28;20402;-71
2022/10/04 14:04:01;;;;;;;2.97;1.40;;;18.00;99.90;;;;;;5054443;28;20406;-71
2022/10/04 14:06:57;;;;;;;8.60;5.10;;;18.00;99.90;;;;;;5053861;28;20489;-71
2022/10/04 14:09:38;;;;;;;2.87;1.50;;;18.00;99.90;;;;;;5053205;28;20456;-71
2022/10/04 14:12:43;;;;;;;4.17;1.60;;;18.10;99.90;;;;;;5053524;28;20401;-70
2022/10/04 14:15:15;;;;;;;2.10;1.50;;;18.00;99.90;;;;;;5052769;28;20402;-71
2022/10/04 14:17:59;;;;;;;3.40;1.43;;;18.10;99.90;;;;;;5052873;28;20431;-71
2022/10/04 14:20:28;;;;;;;3.27;1.80;;;18.20;99.90;;;;;;5034622;28;20437;-71
2022/10/04 14:23:19;;;;;;;6.40;1.20;;;18.30;99.90;;;;;;5017819;28;20555;-71